Miscou Island, Canada
Current Conditions -  °F | °C
As of 10:00 AM on Saturday 25 Oct 2014 (Local Time) from CZBF Reporting Station
Drizzle Drizzle  
Wind Chill: 36°   Ceiling: 500
Heat Index: 41°   Visibility: 2mi
Dew Point: 41°   Wind: 7mph
Humidity: 100%   Direction: 10°N
Pressure: 29.63"   Gusts: NA
Location:  47.87°N, 64.59°W
Report Text: CZBF 251300Z 01006KT 340V050 2SM -DZ BR BKN005 OVC009 05/05 A2963 RMK SF6ST2 SLP036
Loading
Personal Weather Stations






























Interactive Weather Map
Tropical Storm Tracking
New forecast layout! Learn more

10-Day Weather Forecast

Advertisements
Track Severe Weather on mobile